Time;durP1;ratioP1;P1;durP2;ratioP2;P2;SDS_P1;SDS_P2;PMS_P1;PMS_P2;Temp;Humidity;BMP_temperature;BMP_pressure;BME280_temperature;BME280_humidity;BME280_pressure;Samples;Min_cycle;Max_cycle;Signal;HPM_P1;HPM_P2
2022/11/24 16:59:52;;;;;;;50.92;7.18;;;;;;;;;;4966509;28;20519;-77
2022/11/24 17:02:18;;;;;;;57.13;8.75;;;;;;;;;;4947933;28;20141;-79
2022/11/24 17:04:45;;;;;;;64.93;14.77;;;;;;;;;;4961800;28;20058;-80
2022/11/24 17:07:14;;;;;;;76.22;17.45;;;;;;;;;;4966529;28;20062;-79
2022/11/24 17:09:39;;;;;;;54.72;11.98;;;;;;;;;;4966748;28;20051;-80
2022/11/24 17:12:04;;;;;;;63.13;12.55;;;;;;;;;;4955885;28;20507;-79
2022/11/24 17:14:30;;;;;;;50.65;9.73;;;;;;;;;;4952624;28;20575;-80
2022/11/24 17:16:55;;;;;;;57.97;12.27;;;;;;;;;;4957177;28;20046;-79
2022/11/24 17:19:21;;;;;;;54.10;9.32;;;;;;;;;;4960012;28;20598;-79
2022/11/24 17:21:46;;;;;;;58.72;6.78;;;;;;;;;;4956214;28;20055;-80
2022/11/24 17:24:16;;;;;;;38.20;5.95;;;;;;;;;;4954221;28;20047;-79
2022/11/24 17:26:42;;;;;;;26.73;3.83;;;;;;;;;;4955960;28;20599;-80
2022/11/24 17:29:08;;;;;;;31.20;4.60;;;;;;;;;;4959325;28;20039;-80
2022/11/24 17:31:34;;;;;;;34.42;4.35;;;;;;;;;;4957655;28;20061;-78
2022/11/24 17:34:01;;;;;;;29.40;4.05;;;;;;;;;;4960463;28;20685;-78
2022/11/24 17:36:29;;;;;;;27.48;3.72;;;;;;;;;;4958707;28;20129;-79
2022/11/24 17:38:55;;;;;;;29.40;5.85;;;;;;;;;;4965061;28;20078;-78
2022/11/24 17:41:21;;;;;;;42.17;7.50;;;;;;;;;;4950954;28;20555;-80
2022/11/24 17:43:50;;;;;;;30.08;6.28;;;;;;;;;;4961636;28;20160;-80
2022/11/24 17:46:16;;;;;;;37.60;6.50;;;;;;;;;;4954201;28;20066;-79
2022/11/24 17:48:42;;;;;;;37.83;9.10;;;;;;;;;;4952437;28;20536;-79
2022/11/24 17:51:12;;;;;;;43.75;8.32;;;;;;;;;;4963932;28;20042;-79
2022/11/24 17:53:38;;;;;;;50.85;15.45;;;;;;;;;;4962042;28;20138;-79
2022/11/24 17:56:05;;;;;;;59.40;17.15;;;;;;;;;;4957366;28;20098;-79
2022/11/24 17:58:32;;;;;;;54.08;12.13;;;;;;;;;;4955072;28;20077;-79
2022/11/24 18:00:58;;;;;;;55.70;13.02;;;;;;;;;;4960813;28;20388;-79
2022/11/24 18:03:27;;;;;;;49.50;9.77;;;;;;;;;;4955126;28;20496;-79
2022/11/24 18:05:55;;;;;;;57.28;9.70;;;;;;;;;;4963833;28;20084;-79
2022/11/24 18:08:21;;;;;;;57.17;9.35;;;;;;;;;;4957301;28;20481;-80
2022/11/24 18:10:46;;;;;;;57.50;7.60;;;;;;;;;;4959661;28;20128;-80
2022/11/24 18:13:11;;;;;;;46.72;6.28;;;;;;;;;;4956248;28;20451;-80
2022/11/24 18:15:37;;;;;;;48.47;5.93;;;;;;;;;;4957881;28;20500;-79
2022/11/24 18:18:03;;;;;;;43.00;6.30;;;;;;;;;;4956711;28;20041;-80
2022/11/24 18:20:29;;;;;;;42.90;5.03;;;;;;;;;;4959972;28;20047;-80
2022/11/24 18:22:55;;;;;;;38.53;5.60;;;;;;;;;;4960118;28;20050;-80
2022/11/24 18:25:21;;;;;;;39.03;7.03;;;;;;;;;;4943541;28;20527;-79
2022/11/24 18:27:46;;;;;;;33.58;6.25;;;;;;;;;;4957418;28;20047;-78
2022/11/24 18:30:12;;;;;;;40.60;6.00;;;;;;;;;;4960537;28;20043;-80
2022/11/24 18:32:37;;;;;;;26.08;5.65;;;;;;;;;;4963907;28;20050;-79
2022/11/24 18:35:03;;;;;;;41.72;7.00;;;;;;;;;;4961815;28;20042;-80
2022/11/24 18:37:32;;;;;;;37.53;5.43;;;;;;;;;;4952860;28;20058;-80
2022/11/24 18:39:59;;;;;;;37.92;6.93;;;;;;;;;;4959702;28;20383;-80
2022/11/24 18:42:25;;;;;;;46.08;8.50;;;;;;;;;;4960741;28;20130;-77
2022/11/24 18:44:51;;;;;;;34.38;6.80;;;;;;;;;;4956519;28;20433;-79
2022/11/24 18:47:17;;;;;;;33.38;5.40;;;;;;;;;;4955467;28;20042;-80
2022/11/24 18:49:42;;;;;;;44.10;7.72;;;;;;;;;;4949600;28;20779;-80
2022/11/24 18:52:08;;;;;;;38.78;6.15;;;;;;;;;;4956488;28;20042;-78
2022/11/24 18:54:33;;;;;;;37.90;6.20;;;;;;;;;;4948237;28;20065;-78
2022/11/24 18:56:59;;;;;;;39.00;5.57;;;;;;;;;;4945126;28;20275;-77
2022/11/24 18:59:24;;;;;;;42.20;6.85;;;;;;;;;;4953241;28;20458;-78
